Highspire, Pennsylvania
Current Conditions -  °F | °C
As of 1:56 PM on Friday 24 Oct 2014 (Local Time) from KMDT Reporting Station
Scattered Clouds Scattered Clouds  
Wind Chill: 65°   Ceiling: Unl
Heat Index: 65°   Visibility: 10mi
Dew Point: 38°   Wind: 13mph
Humidity: 37%   Direction: 290°WNW
Pressure: 29.88"   Gusts: NA
Location:  40.21°N, 76.79°W
Report Text: KMDT 241756Z 29011KT 10SM SCT250 18/03 A2988 RMK AO2 SLP118 T01830033 10189 20122 58020
Loading
Personal Weather Stations






























Interactive Weather Map
Tropical Storm Tracking
New forecast layout! Learn more

10-Day Weather Forecast

Advertisements
Track Severe Weather on mobile